sensor_id;sensor_type;location;lat;lon;timestamp;pressure;altitude;pressure_sealevel;temperature;humidity
59787;BME280;45672;51.612;5.536;2023-05-23T00:00:57;101680.16;;;15.82;92.16
59787;BME280;45672;51.612;5.536;2023-05-23T00:03:24;101672.75;;;15.76;91.62
59787;BME280;45672;51.612;5.536;2023-05-23T00:05:49;101679.28;;;15.73;92.41
59787;BME280;45672;51.612;5.536;2023-05-23T00:08:15;101678.09;;;15.76;91.82
59787;BME280;45672;51.612;5.536;2023-05-23T00:10:41;101676.09;;;15.78;90.38
59787;BME280;45672;51.612;5.536;2023-05-23T00:13:07;101677.44;;;15.65;91.28
59787;BME280;45672;51.612;5.536;2023-05-23T00:15:39;101665.22;;;15.63;90.56
59787;BME280;45672;51.612;5.536;2023-05-23T00:18:09;101676.75;;;15.72;90.52
59787;BME280;45672;51.612;5.536;2023-05-23T00:20:38;101673.75;;;15.75;89.51
59787;BME280;45672;51.612;5.536;2023-05-23T00:23:08;101675.44;;;15.76;90.25
59787;BME280;45672;51.612;5.536;2023-05-23T00:25:35;101677.63;;;15.72;90.37
59787;BME280;45672;51.612;5.536;2023-05-23T00:28:01;101671.75;;;15.77;90.16
59787;BME280;45672;51.612;5.536;2023-05-23T00:30:28;101679.09;;;15.75;89.26
59787;BME280;45672;51.612;5.536;2023-05-23T00:32:54;101687.53;;;15.80;89.97
59787;BME280;45672;51.612;5.536;2023-05-23T00:35:20;101688.03;;;15.83;89.46
59787;BME280;45672;51.612;5.536;2023-05-23T00:37:48;101694.91;;;15.86;89.16
59787;BME280;45672;51.612;5.536;2023-05-23T00:40:19;101697.91;;;15.83;89.18
59787;BME280;45672;51.612;5.536;2023-05-23T00:42:44;101696.28;;;15.82;88.77
59787;BME280;45672;51.612;5.536;2023-05-23T00:45:10;101703.28;;;15.83;88.58
59787;BME280;45672;51.612;5.536;2023-05-23T00:47:38;101693.59;;;15.82;89.10
59787;BME280;45672;51.612;5.536;2023-05-23T00:50:06;101697.91;;;15.91;88.40
59787;BME280;45672;51.612;5.536;2023-05-23T00:52:32;101711.34;;;15.99;87.63
59787;BME280;45672;51.612;5.536;2023-05-23T00:54:57;101706.97;;;15.90;87.29
59787;BME280;45672;51.612;5.536;2023-05-23T00:57:23;101695.94;;;15.85;86.87
59787;BME280;45672;51.612;5.536;2023-05-23T00:59:48;101703.28;;;15.83;87.73
59787;BME280;45672;51.612;5.536;2023-05-23T01:02:13;101701.47;;;15.83;87.58
59787;BME280;45672;51.612;5.536;2023-05-23T01:04:39;101702.81;;;15.79;87.76
59787;BME280;45672;51.612;5.536;2023-05-23T01:07:04;101698.78;;;15.83;88.05
59787;BME280;45672;51.612;5.536;2023-05-23T01:09:30;101696.56;;;15.79;87.80
59787;BME280;45672;51.612;5.536;2023-05-23T01:12:16;101709.00;;;15.80;87.31
59787;BME280;45672;51.612;5.536;2023-05-23T01:14:52;101708.31;;;15.69;87.95
59787;BME280;45672;51.612;5.536;2023-05-23T01:20:02;101714.16;;;15.57;89.30
59787;BME280;45672;51.612;5.536;2023-05-23T01:25:44;101715.53;;;15.61;89.97
59787;BME280;45672;51.612;5.536;2023-05-23T01:28:14;101723.72;;;15.59;90.68
59787;BME280;45672;51.612;5.536;2023-05-23T01:30:41;101716.00;;;15.56;90.25
59787;BME280;45672;51.612;5.536;2023-05-23T01:33:09;101725.22;;;15.45;90.70
59787;BME280;45672;51.612;5.536;2023-05-23T01:35:36;101719.19;;;15.35;91.59
59787;BME280;45672;51.612;5.536;2023-05-23T01:38:02;101727.03;;;15.28;92.42
59787;BME280;45672;51.612;5.536;2023-05-23T01:40:28;101720.19;;;15.34;92.31
59787;BME280;45672;51.612;5.536;2023-05-23T01:42:55;101728.38;;;15.32;92.86
59787;BME280;45672;51.612;5.536;2023-05-23T01:45:25;101725.88;;;15.31;92.98
59787;BME280;45672;51.612;5.536;2023-05-23T01:47:52;101710.09;;;15.28;92.92
59787;BME280;45672;51.612;5.536;2023-05-23T01:50:18;101721.00;;;15.34;92.43
59787;BME280;45672;51.612;5.536;2023-05-23T01:52:45;101735.09;;;15.37;92.90
59787;BME280;45672;51.612;5.536;2023-05-23T01:55:13;101739.59;;;15.36;91.93
59787;BME280;45672;51.612;5.536;2023-05-23T01:57:40;101745.13;;;15.18;93.15
59787;BME280;45672;51.612;5.536;2023-05-23T02:00:06;101735.19;;;15.10;92.99
59787;BME280;45672;51.612;5.536;2023-05-23T02:02:32;101752.44;;;15.08;93.41
59787;BME280;45672;51.612;5.536;2023-05-23T02:04:58;101746.78;;;15.11;93.58
59787;BME280;45672;51.612;5.536;2023-05-23T02:07:23;101749.78;;;15.16;92.51
59787;BME280;45672;51.612;5.536;2023-05-23T02:09:49;101750.63;;;15.08;92.80
59787;BME280;45672;51.612;5.536;2023-05-23T02:12:14;101751.41;;;15.00;93.43
59787;BME280;45672;51.612;5.536;2023-05-23T02:14:39;101750.03;;;14.96;94.04
59787;BME280;45672;51.612;5.536;2023-05-23T02:17:06;101751.56;;;14.99;94.00
59787;BME280;45672;51.612;5.536;2023-05-23T02:19:34;101757.47;;;15.03;94.45
59787;BME280;45672;51.612;5.536;2023-05-23T02:21:59;101755.09;;;14.99;93.61
59787;BME280;45672;51.612;5.536;2023-05-23T02:24:25;101758.78;;;14.98;93.91
59787;BME280;45672;51.612;5.536;2023-05-23T02:26:50;101764.97;;;14.99;93.66
59787;BME280;45672;51.612;5.536;2023-05-23T02:29:16;101756.75;;;15.00;93.64
59787;BME280;45672;51.612;5.536;2023-05-23T02:31:42;101760.97;;;15.03;93.55
59787;BME280;45672;51.612;5.536;2023-05-23T02:34:07;101759.59;;;14.99;93.39
59787;BME280;45672;51.612;5.536;2023-05-23T02:36:32;101765.66;;;15.01;93.46
59787;BME280;45672;51.612;5.536;2023-05-23T02:38:58;101746.03;;;15.00;93.37
59787;BME280;45672;51.612;5.536;2023-05-23T02:41:23;101746.91;;;15.01;93.23
59787;BME280;45672;51.612;5.536;2023-05-23T02:43:49;101743.03;;;14.95;92.98
59787;BME280;45672;51.612;5.536;2023-05-23T02:46:14;101747.69;;;14.93;93.63
59787;BME280;45672;51.612;5.536;2023-05-23T02:48:39;101764.13;;;14.98;93.73
59787;BME280;45672;51.612;5.536;2023-05-23T02:51:04;101748.22;;;14.97;93.55
59787;BME280;45672;51.612;5.536;2023-05-23T02:53:30;101759.09;;;14.95;93.47
59787;BME280;45672;51.612;5.536;2023-05-23T02:55:55;101755.56;;;14.95;93.77
59787;BME280;45672;51.612;5.536;2023-05-23T02:58:21;101757.59;;;14.93;93.28
59787;BME280;45672;51.612;5.536;2023-05-23T03:00:46;101755.41;;;14.96;93.34
59787;BME280;45672;51.612;5.536;2023-05-23T03:03:12;101754.09;;;15.00;93.62
59787;BME280;45672;51.612;5.536;2023-05-23T03:05:37;101756.94;;;14.99;92.62
59787;BME280;45672;51.612;5.536;2023-05-23T03:08:02;101748.56;;;14.94;92.77
59787;BME280;45672;51.612;5.536;2023-05-23T03:10:27;101751.06;;;14.95;93.33
59787;BME280;45672;51.612;5.536;2023-05-23T03:12:53;101754.56;;;14.96;93.00
59787;BME280;45672;51.612;5.536;2023-05-23T03:15:18;101759.56;;;14.82;94.06
59787;BME280;45672;51.612;5.536;2023-05-23T03:17:43;101755.69;;;14.77;94.53
59787;BME280;45672;51.612;5.536;2023-05-23T03:20:09;101760.88;;;14.78;94.62
59787;BME280;45672;51.612;5.536;2023-05-23T03:22:35;101753.81;;;14.77;94.61
59787;BME280;45672;51.612;5.536;2023-05-23T03:25:00;101756.88;;;14.82;94.73
59787;BME280;45672;51.612;5.536;2023-05-23T03:27:26;101759.69;;;14.81;94.21
59787;BME280;45672;51.612;5.536;2023-05-23T03:29:51;101762.91;;;14.85;94.16
59787;BME280;45672;51.612;5.536;2023-05-23T03:32:16;101771.78;;;14.85;94.08
59787;BME280;45672;51.612;5.536;2023-05-23T03:34:42;101768.25;;;14.85;94.70
59787;BME280;45672;51.612;5.536;2023-05-23T03:37:07;101768.63;;;14.90;94.15
59787;BME280;45672;51.612;5.536;2023-05-23T03:39:32;101775.47;;;14.92;94.09
59787;BME280;45672;51.612;5.536;2023-05-23T03:41:58;101769.41;;;14.82;94.44
59787;BME280;45672;51.612;5.536;2023-05-23T03:44:23;101768.06;;;14.78;94.73
59787;BME280;45672;51.612;5.536;2023-05-23T03:46:48;101779.09;;;14.75;95.26
59787;BME280;45672;51.612;5.536;2023-05-23T03:49:13;101782.47;;;14.77;95.05
59787;BME280;45672;51.612;5.536;2023-05-23T03:51:39;101774.38;;;14.69;95.30
59787;BME280;45672;51.612;5.536;2023-05-23T03:54:04;101782.63;;;14.75;95.83
59787;BME280;45672;51.612;5.536;2023-05-23T03:56:30;101781.28;;;14.79;95.82
59787;BME280;45672;51.612;5.536;2023-05-23T03:58:55;101784.50;;;14.83;94.97
59787;BME280;45672;51.612;5.536;2023-05-23T04:01:20;101773.94;;;14.81;95.36
59787;BME280;45672;51.612;5.536;2023-05-23T04:03:46;101786.47;;;14.81;95.21
59787;BME280;45672;51.612;5.536;2023-05-23T04:06:12;101788.53;;;14.87;95.04
59787;BME280;45672;51.612;5.536;2023-05-23T04:08:37;101797.25;;;14.89;94.77
59787;BME280;45672;51.612;5.536;2023-05-23T04:11:06;101792.22;;;14.86;94.89
59787;BME280;45672;51.612;5.536;2023-05-23T04:13:31;101791.38;;;14.86;95.46
59787;BME280;45672;51.612;5.536;2023-05-23T04:15:59;101801.78;;;14.89;95.12
59787;BME280;45672;51.612;5.536;2023-05-23T04:18:25;101797.09;;;14.91;94.32
59787;BME280;45672;51.612;5.536;2023-05-23T04:20:51;101786.03;;;14.86;94.40
59787;BME280;45672;51.612;5.536;2023-05-23T04:23:16;101784.19;;;14.86;93.86
59787;BME280;45672;51.612;5.536;2023-05-23T04:25:41;101800.63;;;14.91;nan
59787;BME280;45672;51.612;5.536;2023-05-23T04:28:07;101783.47;;;14.76;94.29
59787;BME280;45672;51.612;5.536;2023-05-23T04:30:34;101797.53;;;14.78;94.44
59787;BME280;45672;51.612;5.536;2023-05-23T04:33:00;101807.63;;;14.84;94.26
59787;BME280;45672;51.612;5.536;2023-05-23T04:35:25;101804.78;;;14.86;94.03
59787;BME280;45672;51.612;5.536;2023-05-23T04:37:53;101812.50;;;14.89;94.60
59787;BME280;45672;51.612;5.536;2023-05-23T04:40:21;101810.47;;;14.91;94.01
59787;BME280;45672;51.612;5.536;2023-05-23T04:42:47;101825.41;;;14.93;94.05
59787;BME280;45672;51.612;5.536;2023-05-23T04:45:14;101811.84;;;14.95;93.86
59787;BME280;45672;51.612;5.536;2023-05-23T04:47:39;101822.78;;;15.02;92.77
59787;BME280;45672;51.612;5.536;2023-05-23T04:50:06;101829.63;;;14.96;92.51
59787;BME280;45672;51.612;5.536;2023-05-23T04:52:31;101822.00;;;14.83;92.40
59787;BME280;45672;51.612;5.536;2023-05-23T04:54:58;101837.94;;;14.85;92.66
59787;BME280;45672;51.612;5.536;2023-05-23T04:57:24;101837.09;;;14.84;92.93
59787;BME280;45672;51.612;5.536;2023-05-23T04:59:49;101833.59;;;14.92;92.67
59787;BME280;45672;51.612;5.536;2023-05-23T05:02:14;101832.63;;;14.93;92.69
59787;BME280;45672;51.612;5.536;2023-05-23T05:04:40;101840.53;;;15.03;92.69
59787;BME280;45672;51.612;5.536;2023-05-23T05:07:05;101848.91;;;14.99;91.94
59787;BME280;45672;51.612;5.536;2023-05-23T05:09:30;101847.38;;;14.97;91.75
59787;BME280;45672;51.612;5.536;2023-05-23T05:11:57;101854.41;;;14.98;91.95
59787;BME280;45672;51.612;5.536;2023-05-23T05:14:26;101849.69;;;14.92;91.81
59787;BME280;45672;51.612;5.536;2023-05-23T05:16:52;101850.16;;;14.87;92.03
59787;BME280;45672;51.612;5.536;2023-05-23T05:19:19;101859.69;;;14.81;91.70
59787;BME280;45672;51.612;5.536;2023-05-23T05:21:45;101859.19;;;14.60;92.07
59787;BME280;45672;51.612;5.536;2023-05-23T05:24:10;101868.47;;;14.47;93.11
59787;BME280;45672;51.612;5.536;2023-05-23T05:26:36;101870.66;;;14.52;92.92
59787;BME280;45672;51.612;5.536;2023-05-23T05:29:01;101865.53;;;14.59;93.10
59787;BME280;45672;51.612;5.536;2023-05-23T05:31:27;101865.78;;;14.65;91.94
59787;BME280;45672;51.612;5.536;2023-05-23T05:33:53;101871.13;;;14.65;92.02
59787;BME280;45672;51.612;5.536;2023-05-23T05:36:19;101863.78;;;14.68;91.67
59787;BME280;45672;51.612;5.536;2023-05-23T05:38:44;101867.50;;;14.57;91.49
59787;BME280;45672;51.612;5.536;2023-05-23T05:41:10;101871.72;;;14.59;92.41
59787;BME280;45672;51.612;5.536;2023-05-23T05:43:35;101879.34;;;14.64;91.53
59787;BME280;45672;51.612;5.536;2023-05-23T05:46:01;101889.88;;;14.65;91.99
59787;BME280;45672;51.612;5.536;2023-05-23T05:48:26;101888.09;;;14.56;91.70
59787;BME280;45672;51.612;5.536;2023-05-23T05:50:51;101905.69;;;14.59;91.46
59787;BME280;45672;51.612;5.536;2023-05-23T05:53:17;101902.28;;;14.48;91.41
59787;BME280;45672;51.612;5.536;2023-05-23T05:55:42;101901.66;;;14.37;91.41
59787;BME280;45672;51.612;5.536;2023-05-23T05:58:07;101879.03;;;14.13;92.88
59787;BME280;45672;51.612;5.536;2023-05-23T06:00:33;101903.28;;;14.29;91.96
59787;BME280;45672;51.612;5.536;2023-05-23T06:03:05;101895.47;;;14.18;92.18
59787;BME280;45672;51.612;5.536;2023-05-23T06:05:31;101911.09;;;14.23;91.97
59787;BME280;45672;51.612;5.536;2023-05-23T06:07:56;101910.63;;;14.27;92.66
59787;BME280;45672;51.612;5.536;2023-05-23T06:10:22;101905.78;;;14.31;92.46
59787;BME280;45672;51.612;5.536;2023-05-23T06:12:48;101909.47;;;14.30;91.81
59787;BME280;45672;51.612;5.536;2023-05-23T06:15:14;101899.53;;;14.22;92.08
59787;BME280;45672;51.612;5.536;2023-05-23T06:17:40;101915.28;;;14.25;92.19
59787;BME280;45672;51.612;5.536;2023-05-23T06:20:06;101914.59;;;14.23;91.48
59787;BME280;45672;51.612;5.536;2023-05-23T06:22:32;101911.38;;;14.20;91.30
59787;BME280;45672;51.612;5.536;2023-05-23T06:24:57;101930.03;;;14.29;90.36
59787;BME280;45672;51.612;5.536;2023-05-23T06:27:23;101926.28;;;14.22;90.37
59787;BME280;45672;51.612;5.536;2023-05-23T06:29:48;101931.97;;;14.19;90.29
59787;BME280;45672;51.612;5.536;2023-05-23T06:32:13;101932.03;;;14.27;90.95
59787;BME280;45672;51.612;5.536;2023-05-23T06:34:39;101935.03;;;14.24;90.38
59787;BME280;45672;51.612;5.536;2023-05-23T06:37:04;101939.69;;;14.22;89.55
59787;BME280;45672;51.612;5.536;2023-05-23T06:39:29;101934.53;;;14.11;90.42
59787;BME280;45672;51.612;5.536;2023-05-23T06:41:55;101933.00;;;14.08;89.92
59787;BME280;45672;51.612;5.536;2023-05-23T06:44:20;101932.28;;;13.88;91.39
59787;BME280;45672;51.612;5.536;2023-05-23T06:46:45;101943.81;;;13.99;90.66
59787;BME280;45672;51.612;5.536;2023-05-23T06:49:11;101953.13;;;13.94;90.89
59787;BME280;45672;51.612;5.536;2023-05-23T06:51:37;101949.72;;;13.92;89.50
59787;BME280;45672;51.612;5.536;2023-05-23T06:54:02;101959.84;;;13.99;88.65
59787;BME280;45672;51.612;5.536;2023-05-23T06:56:28;101969.13;;;14.04;87.95
59787;BME280;45672;51.612;5.536;2023-05-23T06:58:53;101962.59;;;14.07;86.29
59787;BME280;45672;51.612;5.536;2023-05-23T07:01:18;101963.31;;;14.09;85.90
59787;BME280;45672;51.612;5.536;2023-05-23T07:03:43;101976.22;;;14.13;85.25
59787;BME280;45672;51.612;5.536;2023-05-23T07:06:10;101966.50;;;14.12;84.70
59787;BME280;45672;51.612;5.536;2023-05-23T07:08:36;101968.44;;;14.20;84.46
59787;BME280;45672;51.612;5.536;2023-05-23T07:11:02;101971.66;;;14.24;82.95
59787;BME280;45672;51.612;5.536;2023-05-23T07:13:27;101983.06;;;14.44;82.91
59787;BME280;45672;51.612;5.536;2023-05-23T07:15:52;101978.97;;;14.68;80.93
59787;BME280;45672;51.612;5.536;2023-05-23T07:18:19;101978.72;;;14.79;78.57
59787;BME280;45672;51.612;5.536;2023-05-23T07:20:44;101982.06;;;14.99;77.40
59787;BME280;45672;51.612;5.536;2023-05-23T07:23:10;101993.47;;;15.01;77.23
59787;BME280;45672;51.612;5.536;2023-05-23T07:25:35;101989.31;;;15.07;75.66
59787;BME280;45672;51.612;5.536;2023-05-23T07:28:00;101987.09;;;15.02;73.95
59787;BME280;45672;51.612;5.536;2023-05-23T07:30:25;101990.31;;;15.06;74.81
59787;BME280;45672;51.612;5.536;2023-05-23T07:32:51;101979.69;;;15.22;73.65
59787;BME280;45672;51.612;5.536;2023-05-23T07:35:17;101995.66;;;15.58;72.11
59787;BME280;45672;51.612;5.536;2023-05-23T07:37:43;101983.91;;;15.85;68.05
59787;BME280;45672;51.612;5.536;2023-05-23T07:40:08;101989.06;;;16.30;68.22
59787;BME280;45672;51.612;5.536;2023-05-23T07:42:34;102003.34;;;16.30;66.91
59787;BME280;45672;51.612;5.536;2023-05-23T07:45:00;101995.06;;;16.07;66.78
59787;BME280;45672;51.612;5.536;2023-05-23T07:47:26;102003.97;;;16.16;66.70
59787;BME280;45672;51.612;5.536;2023-05-23T07:49:51;101999.13;;;16.19;66.95
59787;BME280;45672;51.612;5.536;2023-05-23T07:52:17;101985.88;;;16.18;67.37
59787;BME280;45672;51.612;5.536;2023-05-23T07:54:42;101996.59;;;16.18;65.84
59787;BME280;45672;51.612;5.536;2023-05-23T07:57:08;102006.31;;;16.11;66.38
59787;BME280;45672;51.612;5.536;2023-05-23T07:59:34;102010.31;;;16.07;67.82
59787;BME280;45672;51.612;5.536;2023-05-23T08:02:00;102011.28;;;15.97;67.72
59787;BME280;45672;51.612;5.536;2023-05-23T08:04:25;102013.97;;;15.97;69.83
59787;BME280;45672;51.612;5.536;2023-05-23T08:06:51;102023.22;;;15.95;69.28
59787;BME280;45672;51.612;5.536;2023-05-23T08:09:17;102023.56;;;16.00;68.50
59787;BME280;45672;51.612;5.536;2023-05-23T08:11:43;102008.31;;;16.00;67.48
59787;BME280;45672;51.612;5.536;2023-05-23T08:14:08;102025.66;;;15.80;67.33
59787;BME280;45672;51.612;5.536;2023-05-23T08:16:34;102026.16;;;15.57;69.98
59787;BME280;45672;51.612;5.536;2023-05-23T08:18:59;102020.91;;;15.47;69.95
59787;BME280;45672;51.612;5.536;2023-05-23T08:21:25;102018.66;;;15.34;71.41
59787;BME280;45672;51.612;5.536;2023-05-23T08:23:50;102027.03;;;15.31;71.19
59787;BME280;45672;51.612;5.536;2023-05-23T08:26:15;102019.78;;;15.24;71.95
59787;BME280;45672;51.612;5.536;2023-05-23T08:28:41;102030.75;;;15.39;72.17
59787;BME280;45672;51.612;5.536;2023-05-23T08:31:06;102022.28;;;15.51;71.17
59787;BME280;45672;51.612;5.536;2023-05-23T08:33:31;102027.88;;;15.58;70.75
59787;BME280;45672;51.612;5.536;2023-05-23T08:35:57;102024.47;;;15.56;71.04
59787;BME280;45672;51.612;5.536;2023-05-23T08:38:22;102036.34;;;15.45;72.30
59787;BME280;45672;51.612;5.536;2023-05-23T08:40:50;102025.44;;;15.21;72.67
59787;BME280;45672;51.612;5.536;2023-05-23T08:43:17;102032.66;;;15.02;74.70
59787;BME280;45672;51.612;5.536;2023-05-23T08:45:42;102033.59;;;15.11;73.82
59787;BME280;45672;51.612;5.536;2023-05-23T08:48:08;102040.53;;;15.04;75.35
59787;BME280;45672;51.612;5.536;2023-05-23T08:50:39;102045.41;;;15.26;73.91
59787;BME280;45672;51.612;5.536;2023-05-23T08:53:05;102042.38;;;15.47;72.64
59787;BME280;45672;51.612;5.536;2023-05-23T08:55:34;102052.72;;;15.68;72.74
59787;BME280;45672;51.612;5.536;2023-05-23T08:58:01;102055.31;;;15.78;69.83
59787;BME280;45672;51.612;5.536;2023-05-23T09:00:28;102052.56;;;15.70;70.60
59787;BME280;45672;51.612;5.536;2023-05-23T09:02:54;102050.19;;;15.85;70.47
59787;BME280;45672;51.612;5.536;2023-05-23T09:05:20;102045.72;;;16.02;67.63
59787;BME280;45672;51.612;5.536;2023-05-23T09:07:46;102062.75;;;16.19;67.24
59787;BME280;45672;51.612;5.536;2023-05-23T09:10:13;102056.75;;;16.33;65.47
59787;BME280;45672;51.612;5.536;2023-05-23T09:12:41;102050.03;;;16.46;65.04
59787;BME280;45672;51.612;5.536;2023-05-23T09:15:08;102046.56;;;16.62;64.60
59787;BME280;45672;51.612;5.536;2023-05-23T09:17:34;102057.31;;;16.62;62.31
59787;BME280;45672;51.612;5.536;2023-05-23T09:20:00;102058.44;;;16.43;63.30
59787;BME280;45672;51.612;5.536;2023-05-23T09:22:27;102070.19;;;16.50;59.66
59787;BME280;45672;51.612;5.536;2023-05-23T09:24:56;102067.38;;;16.68;59.79
59787;BME280;45672;51.612;5.536;2023-05-23T09:27:22;102066.72;;;16.74;59.18
59787;BME280;45672;51.612;5.536;2023-05-23T09:29:48;102068.22;;;16.60;57.12
59787;BME280;45672;51.612;5.536;2023-05-23T09:32:18;102069.44;;;16.23;60.77
59787;BME280;45672;51.612;5.536;2023-05-23T09:37:15;102072.47;;;16.87;57.54
59787;BME280;45672;51.612;5.536;2023-05-23T09:39:45;102069.31;;;17.09;56.66
59787;BME280;45672;51.612;5.536;2023-05-23T09:42:10;102080.38;;;17.05;56.42
59787;BME280;45672;51.612;5.536;2023-05-23T09:44:40;102076.81;;;16.72;59.02
59787;BME280;45672;51.612;5.536;2023-05-23T09:47:06;102077.31;;;16.84;58.97
59787;BME280;45672;51.612;5.536;2023-05-23T09:49:31;102082.91;;;16.99;58.53
59787;BME280;45672;51.612;5.536;2023-05-23T09:51:57;102079.38;;;17.23;57.38
59787;BME280;45672;51.612;5.536;2023-05-23T09:54:23;102079.34;;;17.64;56.02
59787;BME280;45672;51.612;5.536;2023-05-23T09:56:50;102070.63;;;17.46;54.36
59787;BME280;45672;51.612;5.536;2023-05-23T09:59:17;102085.94;;;17.12;57.17
59787;BME280;45672;51.612;5.536;2023-05-23T10:01:50;102077.53;;;16.91;57.70
59787;BME280;45672;51.612;5.536;2023-05-23T10:04:20;102085.94;;;17.12;57.46
59787;BME280;45672;51.612;5.536;2023-05-23T10:06:50;102083.88;;;18.20;53.27
59787;BME280;45672;51.612;5.536;2023-05-23T10:09:20;102070.47;;;18.98;50.89
59787;BME280;45672;51.612;5.536;2023-05-23T10:12:20;102065.81;;;21.14;45.54
59787;BME280;45672;51.612;5.536;2023-05-23T10:14:56;102070.47;;;20.98;44.16
59787;BME280;45672;51.612;5.536;2023-05-23T10:17:34;102075.94;;;20.47;46.89
59787;BME280;45672;51.612;5.536;2023-05-23T10:20:04;102075.38;;;20.52;46.14
59787;BME280;45672;51.612;5.536;2023-05-23T10:22:36;102081.94;;;21.85;42.18
59787;BME280;45672;51.612;5.536;2023-05-23T10:25:03;102092.53;;;23.04;38.60
59787;BME280;45672;51.612;5.536;2023-05-23T10:27:38;102087.81;;;24.64;36.40
59787;BME280;45672;51.612;5.536;2023-05-23T10:30:07;102098.28;;;25.17;34.35
59787;BME280;45672;51.612;5.536;2023-05-23T10:32:34;102088.78;;;25.01;33.16
59787;BME280;45672;51.612;5.536;2023-05-23T10:35:09;102088.69;;;24.12;35.71
59787;BME280;45672;51.612;5.536;2023-05-23T10:45:49;102080.00;;;20.73;41.98
59787;BME280;45672;51.612;5.536;2023-05-23T10:48:42;102082.88;;;20.20;43.28
59787;BME280;45672;51.612;5.536;2023-05-23T10:51:10;102086.94;;;19.79;41.72
59787;BME280;45672;51.612;5.536;2023-05-23T10:53:37;102080.88;;;19.24;43.97
59787;BME280;45672;51.612;5.536;2023-05-23T10:56:04;102072.47;;;19.19;43.02
59787;BME280;45672;51.612;5.536;2023-05-23T10:58:31;102075.44;;;19.62;45.08
59787;BME280;45672;51.612;5.536;2023-05-23T11:01:03;102072.56;;;20.08;43.47
59787;BME280;45672;51.612;5.536;2023-05-23T11:03:33;102075.16;;;20.31;44.88
59787;BME280;45672;51.612;5.536;2023-05-23T11:06:00;102073.06;;;20.33;42.77
59787;BME280;45672;51.612;5.536;2023-05-23T11:08:25;102077.59;;;20.11;43.38
59787;BME280;45672;51.612;5.536;2023-05-23T11:10:52;102081.81;;;19.99;42.78
59787;BME280;45672;51.612;5.536;2023-05-23T11:13:19;102078.97;;;19.62;44.45
59787;BME280;45672;51.612;5.536;2023-05-23T11:15:46;102080.53;;;19.57;44.65
59787;BME280;45672;51.612;5.536;2023-05-23T11:18:27;102075.94;;;19.80;45.36
59787;BME280;45672;51.612;5.536;2023-05-23T11:20:57;102072.69;;;19.85;43.85
59787;BME280;45672;51.612;5.536;2023-05-23T11:23:38;102076.13;;;19.94;42.58
59787;BME280;45672;51.612;5.536;2023-05-23T11:26:28;102087.63;;;19.58;43.36
59787;BME280;45672;51.612;5.536;2023-05-23T11:28:57;102082.69;;;19.46;42.68
59787;BME280;45672;51.612;5.536;2023-05-23T11:31:23;102081.94;;;19.53;40.83
59787;BME280;45672;51.612;5.536;2023-05-23T11:33:52;102091.22;;;19.35;41.83
59787;BME280;45672;51.612;5.536;2023-05-23T11:36:17;102083.78;;;18.99;41.71
59787;BME280;45672;51.612;5.536;2023-05-23T11:38:44;102082.53;;;18.78;43.36
59787;BME280;45672;51.612;5.536;2023-05-23T11:41:12;102086.13;;;18.71;45.28
59787;BME280;45672;51.612;5.536;2023-05-23T11:43:48;102087.25;;;19.08;44.65
59787;BME280;45672;51.612;5.536;2023-05-23T11:46:14;102082.50;;;19.48;41.69
59787;BME280;45672;51.612;5.536;2023-05-23T11:48:46;102080.91;;;19.39;42.19
59787;BME280;45672;51.612;5.536;2023-05-23T11:51:12;102079.97;;;19.08;42.54
59787;BME280;45672;51.612;5.536;2023-05-23T11:53:37;102088.22;;;18.92;42.25
59787;BME280;45672;51.612;5.536;2023-05-23T11:56:03;102090.50;;;18.72;42.81
59787;BME280;45672;51.612;5.536;2023-05-23T11:58:35;102098.53;;;18.57;44.01
59787;BME280;45672;51.612;5.536;2023-05-23T12:01:08;102081.50;;;18.88;44.78
59787;BME280;45672;51.612;5.536;2023-05-23T12:03:46;102085.91;;;18.81;46.34
59787;BME280;45672;51.612;5.536;2023-05-23T12:06:18;102095.38;;;18.76;45.57
59787;BME280;45672;51.612;5.536;2023-05-23T12:08:46;102090.94;;;18.84;44.09
59787;BME280;45672;51.612;5.536;2023-05-23T12:11:12;102090.50;;;19.03;42.12
59787;BME280;45672;51.612;5.536;2023-05-23T12:13:40;102103.44;;;19.08;42.58
59787;BME280;45672;51.612;5.536;2023-05-23T12:16:06;102097.81;;;18.63;41.82
59787;BME280;45672;51.612;5.536;2023-05-23T12:18:32;102091.34;;;18.49;43.04
59787;BME280;45672;51.612;5.536;2023-05-23T12:20:59;102109.75;;;18.29;44.60
59787;BME280;45672;51.612;5.536;2023-05-23T12:23:26;102109.84;;;18.13;46.31
59787;BME280;45672;51.612;5.536;2023-05-23T12:25:53;102111.22;;;18.48;45.79
59787;BME280;45672;51.612;5.536;2023-05-23T12:31:10;102111.81;;;18.90;43.36
59787;BME280;45672;51.612;5.536;2023-05-23T12:33:43;102103.19;;;18.63;43.54
59787;BME280;45672;51.612;5.536;2023-05-23T12:36:12;102111.97;;;18.65;43.43
59787;BME280;45672;51.612;5.536;2023-05-23T12:38:38;102110.28;;;18.64;43.29
59787;BME280;45672;51.612;5.536;2023-05-23T12:41:23;102128.66;;;18.60;44.52
59787;BME280;45672;51.612;5.536;2023-05-23T12:43:52;102132.66;;;18.65;44.59
59787;BME280;45672;51.612;5.536;2023-05-23T12:46:25;102131.78;;;18.72;43.83
59787;BME280;45672;51.612;5.536;2023-05-23T12:48:51;102112.19;;;18.55;42.34
59787;BME280;45672;51.612;5.536;2023-05-23T12:51:17;102129.31;;;18.63;42.66
59787;BME280;45672;51.612;5.536;2023-05-23T12:53:43;102135.41;;;18.96;43.02
59787;BME280;45672;51.612;5.536;2023-05-23T12:56:08;102133.72;;;18.95;41.17
59787;BME280;45672;51.612;5.536;2023-05-23T12:58:34;102138.59;;;18.60;41.43
59787;BME280;45672;51.612;5.536;2023-05-23T13:01:00;102125.81;;;18.22;41.43
59787;BME280;45672;51.612;5.536;2023-05-23T13:03:27;102124.84;;;18.07;42.52
59787;BME280;45672;51.612;5.536;2023-05-23T13:05:53;102114.19;;;18.22;44.14
59787;BME280;45672;51.612;5.536;2023-05-23T13:08:19;102124.94;;;18.61;43.66